sensor_id;sensor_type;location;lat;lon;timestamp;P1;durP1;ratioP1;P2;durP2;ratioP2
17175;SDS011;8703;48.996;9.594;2023-05-10T00:02:06;3.60;;;2.20;;
17175;SDS011;8703;48.996;9.594;2023-05-10T00:04:35;4.00;;;2.00;;
17175;SDS011;8703;48.996;9.594;2023-05-10T00:07:02;4.10;;;2.20;;
17175;SDS011;8703;48.996;9.594;2023-05-10T00:09:30;3.87;;;2.33;;
17175;SDS011;8703;48.996;9.594;2023-05-10T00:11:57;3.90;;;2.30;;
17175;SDS011;8703;48.996;9.594;2023-05-10T00:14:24;5.40;;;2.37;;
17175;SDS011;8703;48.996;9.594;2023-05-10T00:16:52;3.97;;;2.47;;
17175;SDS011;8703;48.996;9.594;2023-05-10T00:19:19;4.70;;;2.03;;
17175;SDS011;8703;48.996;9.594;2023-05-10T00:21:48;6.57;;;2.30;;
17175;SDS011;8703;48.996;9.594;2023-05-10T00:24:15;5.80;;;2.50;;
17175;SDS011;8703;48.996;9.594;2023-05-10T00:26:42;5.50;;;2.00;;
17175;SDS011;8703;48.996;9.594;2023-05-10T00:29:10;5.07;;;2.10;;
17175;SDS011;8703;48.996;9.594;2023-05-10T00:31:37;4.67;;;2.07;;
17175;SDS011;8703;48.996;9.594;2023-05-10T00:34:04;3.27;;;1.97;;
17175;SDS011;8703;48.996;9.594;2023-05-10T00:36:32;2.00;;;1.50;;
17175;SDS011;8703;48.996;9.594;2023-05-10T00:39:00;2.47;;;1.70;;
17175;SDS011;8703;48.996;9.594;2023-05-10T00:41:28;2.13;;;1.53;;
17175;SDS011;8703;48.996;9.594;2023-05-10T00:43:57;2.30;;;1.93;;
17175;SDS011;8703;48.996;9.594;2023-05-10T00:46:25;5.43;;;1.77;;
17175;SDS011;8703;48.996;9.594;2023-05-10T00:48:53;2.47;;;1.50;;
17175;SDS011;8703;48.996;9.594;2023-05-10T00:51:20;2.93;;;1.60;;
17175;SDS011;8703;48.996;9.594;2023-05-10T00:53:48;2.43;;;1.30;;
17175;SDS011;8703;48.996;9.594;2023-05-10T00:56:17;2.03;;;1.37;;
17175;SDS011;8703;48.996;9.594;2023-05-10T00:58:47;2.17;;;1.37;;
17175;SDS011;8703;48.996;9.594;2023-05-10T01:01:15;1.33;;;1.17;;
17175;SDS011;8703;48.996;9.594;2023-05-10T01:03:42;1.33;;;1.03;;
17175;SDS011;8703;48.996;9.594;2023-05-10T01:06:10;1.20;;;1.10;;
17175;SDS011;8703;48.996;9.594;2023-05-10T01:08:38;2.27;;;1.30;;
17175;SDS011;8703;48.996;9.594;2023-05-10T01:11:05;1.50;;;1.23;;
17175;SDS011;8703;48.996;9.594;2023-05-10T01:13:34;1.40;;;1.23;;
17175;SDS011;8703;48.996;9.594;2023-05-10T01:16:04;1.40;;;1.17;;
17175;SDS011;8703;48.996;9.594;2023-05-10T01:18:32;1.50;;;1.27;;
17175;SDS011;8703;48.996;9.594;2023-05-10T01:21:04;1.40;;;1.10;;
17175;SDS011;8703;48.996;9.594;2023-05-10T01:23:59;2.33;;;1.30;;
17175;SDS011;8703;48.996;9.594;2023-05-10T01:26:42;3.43;;;1.30;;
17175;SDS011;8703;48.996;9.594;2023-05-10T01:29:38;4.30;;;1.33;;
17175;SDS011;8703;48.996;9.594;2023-05-10T01:32:37;2.40;;;1.30;;
17175;SDS011;8703;48.996;9.594;2023-05-10T01:35:09;3.40;;;1.30;;
17175;SDS011;8703;48.996;9.594;2023-05-10T01:37:41;2.03;;;1.30;;
17175;SDS011;8703;48.996;9.594;2023-05-10T01:40:13;2.97;;;1.20;;
17175;SDS011;8703;48.996;9.594;2023-05-10T01:42:46;1.53;;;1.03;;
17175;SDS011;8703;48.996;9.594;2023-05-10T01:45:18;3.10;;;1.57;;
17175;SDS011;8703;48.996;9.594;2023-05-10T01:47:53;3.13;;;1.80;;
17175;SDS011;8703;48.996;9.594;2023-05-10T01:50:27;1.63;;;0.97;;
17175;SDS011;8703;48.996;9.594;2023-05-10T01:52:57;1.13;;;1.03;;
17175;SDS011;8703;48.996;9.594;2023-05-10T01:55:26;3.47;;;1.40;;
17175;SDS011;8703;48.996;9.594;2023-05-10T01:57:57;1.47;;;1.37;;
17175;SDS011;8703;48.996;9.594;2023-05-10T02:00:28;1.60;;;1.40;;
17175;SDS011;8703;48.996;9.594;2023-05-10T02:02:57;1.47;;;1.37;;
17175;SDS011;8703;48.996;9.594;2023-05-10T02:05:26;1.10;;;1.00;;
17175;SDS011;8703;48.996;9.594;2023-05-10T02:07:56;1.50;;;1.40;;
17175;SDS011;8703;48.996;9.594;2023-05-10T02:10:25;2.53;;;1.23;;
17175;SDS011;8703;48.996;9.594;2023-05-10T02:12:53;2.07;;;1.40;;
17175;SDS011;8703;48.996;9.594;2023-05-10T02:15:22;1.90;;;1.60;;
17175;SDS011;8703;48.996;9.594;2023-05-10T02:17:50;2.80;;;1.53;;
17175;SDS011;8703;48.996;9.594;2023-05-10T02:20:22;2.87;;;1.70;;
17175;SDS011;8703;48.996;9.594;2023-05-10T02:22:50;2.83;;;1.57;;
17175;SDS011;8703;48.996;9.594;2023-05-10T02:25:20;2.30;;;1.57;;
17175;SDS011;8703;48.996;9.594;2023-05-10T02:27:48;1.67;;;1.50;;
17175;SDS011;8703;48.996;9.594;2023-05-10T02:30:16;3.83;;;1.73;;
17175;SDS011;8703;48.996;9.594;2023-05-10T02:32:43;2.23;;;1.20;;
17175;SDS011;8703;48.996;9.594;2023-05-10T02:35:11;3.70;;;1.83;;
17175;SDS011;8703;48.996;9.594;2023-05-10T02:37:41;2.33;;;1.70;;
17175;SDS011;8703;48.996;9.594;2023-05-10T02:40:09;2.07;;;1.60;;
17175;SDS011;8703;48.996;9.594;2023-05-10T02:42:37;2.07;;;1.77;;
17175;SDS011;8703;48.996;9.594;2023-05-10T02:45:07;3.33;;;1.90;;
17175;SDS011;8703;48.996;9.594;2023-05-10T02:47:37;2.90;;;2.00;;
17175;SDS011;8703;48.996;9.594;2023-05-10T02:50:04;2.63;;;1.50;;
17175;SDS011;8703;48.996;9.594;2023-05-10T02:52:36;2.00;;;1.70;;
17175;SDS011;8703;48.996;9.594;2023-05-10T02:55:09;2.03;;;1.67;;
17175;SDS011;8703;48.996;9.594;2023-05-10T02:57:38;5.50;;;1.80;;
17175;SDS011;8703;48.996;9.594;2023-05-10T03:00:09;2.47;;;2.00;;
17175;SDS011;8703;48.996;9.594;2023-05-10T03:02:37;2.07;;;1.87;;
17175;SDS011;8703;48.996;9.594;2023-05-10T03:05:05;5.03;;;2.20;;
17175;SDS011;8703;48.996;9.594;2023-05-10T03:07:33;3.50;;;2.00;;
17175;SDS011;8703;48.996;9.594;2023-05-10T03:10:01;5.77;;;2.10;;
17175;SDS011;8703;48.996;9.594;2023-05-10T03:12:33;3.40;;;2.20;;
17175;SDS011;8703;48.996;9.594;2023-05-10T03:15:11;3.60;;;1.90;;
17175;SDS011;8703;48.996;9.594;2023-05-10T03:17:46;5.17;;;2.20;;
17175;SDS011;8703;48.996;9.594;2023-05-10T03:20:16;4.47;;;1.93;;
17175;SDS011;8703;48.996;9.594;2023-05-10T03:22:49;2.40;;;2.20;;
17175;SDS011;8703;48.996;9.594;2023-05-10T03:25:17;3.00;;;2.20;;
17175;SDS011;8703;48.996;9.594;2023-05-10T03:27:46;3.93;;;2.03;;
17175;SDS011;8703;48.996;9.594;2023-05-10T03:30:14;2.83;;;2.20;;
17175;SDS011;8703;48.996;9.594;2023-05-10T03:32:42;2.60;;;2.30;;
17175;SDS011;8703;48.996;9.594;2023-05-10T03:35:10;2.80;;;2.50;;
17175;SDS011;8703;48.996;9.594;2023-05-10T03:37:39;6.47;;;2.50;;
17175;SDS011;8703;48.996;9.594;2023-05-10T03:40:07;3.70;;;2.37;;
17175;SDS011;8703;48.996;9.594;2023-05-10T03:42:35;4.53;;;2.70;;
17175;SDS011;8703;48.996;9.594;2023-05-10T03:45:04;2.70;;;2.50;;
17175;SDS011;8703;48.996;9.594;2023-05-10T03:47:32;5.67;;;2.77;;
17175;SDS011;8703;48.996;9.594;2023-05-10T03:49:59;5.83;;;2.90;;
17175;SDS011;8703;48.996;9.594;2023-05-10T03:52:27;5.20;;;3.20;;
17175;SDS011;8703;48.996;9.594;2023-05-10T03:54:55;4.40;;;3.03;;
17175;SDS011;8703;48.996;9.594;2023-05-10T03:57:22;5.13;;;3.30;;
17175;SDS011;8703;48.996;9.594;2023-05-10T03:59:49;5.70;;;3.37;;
17175;SDS011;8703;48.996;9.594;2023-05-10T04:02:18;5.13;;;3.27;;
17175;SDS011;8703;48.996;9.594;2023-05-10T04:04:45;5.60;;;3.70;;
17175;SDS011;8703;48.996;9.594;2023-05-10T04:07:13;4.13;;;3.30;;
17175;SDS011;8703;48.996;9.594;2023-05-10T04:09:40;5.30;;;3.30;;
17175;SDS011;8703;48.996;9.594;2023-05-10T04:12:08;4.63;;;3.40;;
17175;SDS011;8703;48.996;9.594;2023-05-10T04:14:35;8.70;;;4.10;;
17175;SDS011;8703;48.996;9.594;2023-05-10T04:17:03;6.53;;;3.87;;
17175;SDS011;8703;48.996;9.594;2023-05-10T04:19:32;10.43;;;4.23;;
17175;SDS011;8703;48.996;9.594;2023-05-10T04:21:59;5.63;;;4.70;;
17175;SDS011;8703;48.996;9.594;2023-05-10T04:24:27;6.57;;;4.00;;
17175;SDS011;8703;48.996;9.594;2023-05-10T04:26:55;5.27;;;4.40;;
17175;SDS011;8703;48.996;9.594;2023-05-10T04:29:22;5.33;;;4.10;;
17175;SDS011;8703;48.996;9.594;2023-05-10T04:31:50;7.87;;;4.90;;
17175;SDS011;8703;48.996;9.594;2023-05-10T04:34:18;11.30;;;6.27;;
17175;SDS011;8703;48.996;9.594;2023-05-10T04:36:48;6.27;;;4.50;;
17175;SDS011;8703;48.996;9.594;2023-05-10T04:39:16;6.07;;;4.67;;
17175;SDS011;8703;48.996;9.594;2023-05-10T04:41:43;6.77;;;5.00;;
17175;SDS011;8703;48.996;9.594;2023-05-10T04:44:10;5.23;;;4.03;;
17175;SDS011;8703;48.996;9.594;2023-05-10T04:46:38;4.90;;;3.70;;
17175;SDS011;8703;48.996;9.594;2023-05-10T04:49:05;6.57;;;4.30;;
17175;SDS011;8703;48.996;9.594;2023-05-10T04:51:32;4.63;;;3.50;;
17175;SDS011;8703;48.996;9.594;2023-05-10T04:54:01;6.23;;;3.40;;
17175;SDS011;8703;48.996;9.594;2023-05-10T04:56:29;5.53;;;3.57;;
17175;SDS011;8703;48.996;9.594;2023-05-10T04:58:56;3.80;;;3.40;;
17175;SDS011;8703;48.996;9.594;2023-05-10T05:01:23;8.23;;;3.20;;
17175;SDS011;8703;48.996;9.594;2023-05-10T05:03:51;4.90;;;3.77;;
17175;SDS011;8703;48.996;9.594;2023-05-10T05:06:18;5.67;;;4.23;;
17175;SDS011;8703;48.996;9.594;2023-05-10T05:08:46;4.83;;;4.20;;
17175;SDS011;8703;48.996;9.594;2023-05-10T05:11:15;4.93;;;3.90;;
17175;SDS011;8703;48.996;9.594;2023-05-10T05:13:43;5.30;;;4.03;;
17175;SDS011;8703;48.996;9.594;2023-05-10T05:16:10;5.13;;;4.43;;
17175;SDS011;8703;48.996;9.594;2023-05-10T05:18:37;6.60;;;4.37;;
17175;SDS011;8703;48.996;9.594;2023-05-10T05:21:13;5.43;;;4.63;;
17175;SDS011;8703;48.996;9.594;2023-05-10T05:23:41;9.10;;;5.13;;
17175;SDS011;8703;48.996;9.594;2023-05-10T05:26:08;6.57;;;4.97;;
17175;SDS011;8703;48.996;9.594;2023-05-10T05:28:37;4.83;;;4.33;;
17175;SDS011;8703;48.996;9.594;2023-05-10T05:31:05;10.33;;;4.63;;
17175;SDS011;8703;48.996;9.594;2023-05-10T05:33:33;7.13;;;5.50;;
17175;SDS011;8703;48.996;9.594;2023-05-10T05:36:01;6.40;;;5.03;;
17175;SDS011;8703;48.996;9.594;2023-05-10T05:38:29;6.40;;;4.87;;
17175;SDS011;8703;48.996;9.594;2023-05-10T05:40:56;5.90;;;4.30;;
17175;SDS011;8703;48.996;9.594;2023-05-10T05:43:23;5.23;;;4.73;;
17175;SDS011;8703;48.996;9.594;2023-05-10T05:45:53;5.97;;;4.10;;
17175;SDS011;8703;48.996;9.594;2023-05-10T05:48:22;5.57;;;4.40;;
17175;SDS011;8703;48.996;9.594;2023-05-10T05:50:50;4.97;;;4.33;;
17175;SDS011;8703;48.996;9.594;2023-05-10T05:53:21;7.00;;;4.40;;
17175;SDS011;8703;48.996;9.594;2023-05-10T05:55:52;5.10;;;4.27;;
17175;SDS011;8703;48.996;9.594;2023-05-10T05:58:20;5.10;;;4.13;;
17175;SDS011;8703;48.996;9.594;2023-05-10T06:00:47;6.30;;;3.97;;
17175;SDS011;8703;48.996;9.594;2023-05-10T06:03:16;7.77;;;4.50;;
17175;SDS011;8703;48.996;9.594;2023-05-10T06:05:44;7.40;;;4.17;;
17175;SDS011;8703;48.996;9.594;2023-05-10T06:08:11;4.83;;;3.83;;
17175;SDS011;8703;48.996;9.594;2023-05-10T06:10:38;4.30;;;3.77;;
17175;SDS011;8703;48.996;9.594;2023-05-10T06:13:06;5.30;;;3.50;;
17175;SDS011;8703;48.996;9.594;2023-05-10T06:15:33;5.73;;;3.80;;
17175;SDS011;8703;48.996;9.594;2023-05-10T06:18:00;4.87;;;3.97;;
17175;SDS011;8703;48.996;9.594;2023-05-10T06:20:29;4.87;;;3.53;;
17175;SDS011;8703;48.996;9.594;2023-05-10T06:22:57;6.30;;;3.93;;
17175;SDS011;8703;48.996;9.594;2023-05-10T06:25:24;4.07;;;3.57;;
17175;SDS011;8703;48.996;9.594;2023-05-10T06:27:52;5.40;;;3.70;;
17175;SDS011;8703;48.996;9.594;2023-05-10T06:30:22;5.23;;;3.40;;
17175;SDS011;8703;48.996;9.594;2023-05-10T06:32:52;3.83;;;3.40;;
17175;SDS011;8703;48.996;9.594;2023-05-10T06:35:20;4.63;;;3.40;;
17175;SDS011;8703;48.996;9.594;2023-05-10T06:37:49;6.50;;;3.50;;
17175;SDS011;8703;48.996;9.594;2023-05-10T06:40:17;5.47;;;3.93;;
17175;SDS011;8703;48.996;9.594;2023-05-10T06:42:45;10.47;;;3.70;;
17175;SDS011;8703;48.996;9.594;2023-05-10T06:45:14;4.33;;;3.10;;
17175;SDS011;8703;48.996;9.594;2023-05-10T06:47:42;4.47;;;2.92;;
17175;SDS011;8703;48.996;9.594;2023-05-10T06:50:09;5.20;;;3.10;;
17175;SDS011;8703;48.996;9.594;2023-05-10T06:52:37;5.90;;;3.50;;
17175;SDS011;8703;48.996;9.594;2023-05-10T06:55:06;5.13;;;3.40;;
17175;SDS011;8703;48.996;9.594;2023-05-10T06:57:34;4.27;;;3.57;;
17175;SDS011;8703;48.996;9.594;2023-05-10T07:00:02;7.65;;;3.60;;
17175;SDS011;8703;48.996;9.594;2023-05-10T07:02:31;3.70;;;3.40;;
17175;SDS011;8703;48.996;9.594;2023-05-10T07:04:58;3.60;;;3.30;;
17175;SDS011;8703;48.996;9.594;2023-05-10T07:07:25;6.60;;;3.50;;
17175;SDS011;8703;48.996;9.594;2023-05-10T07:09:53;4.40;;;3.40;;
17175;SDS011;8703;48.996;9.594;2023-05-10T07:12:22;5.32;;;3.45;;
17175;SDS011;8703;48.996;9.594;2023-05-10T07:14:50;5.35;;;3.33;;
17175;SDS011;8703;48.996;9.594;2023-05-10T07:17:17;4.28;;;3.38;;
17175;SDS011;8703;48.996;9.594;2023-05-10T07:19:45;6.80;;;3.57;;
17175;SDS011;8703;48.996;9.594;2023-05-10T07:22:12;4.40;;;3.50;;
17175;SDS011;8703;48.996;9.594;2023-05-10T07:24:39;4.82;;;2.95;;
17175;SDS011;8703;48.996;9.594;2023-05-10T07:27:07;3.20;;;2.60;;
17175;SDS011;8703;48.996;9.594;2023-05-10T07:29:36;3.33;;;2.90;;
17175;SDS011;8703;48.996;9.594;2023-05-10T07:32:03;3.23;;;2.93;;
17175;SDS011;8703;48.996;9.594;2023-05-10T07:34:32;2.90;;;2.60;;
17175;SDS011;8703;48.996;9.594;2023-05-10T07:36:59;3.60;;;2.40;;
17175;SDS011;8703;48.996;9.594;2023-05-10T07:39:26;2.80;;;2.23;;
17175;SDS011;8703;48.996;9.594;2023-05-10T07:41:54;4.70;;;2.30;;
17175;SDS011;8703;48.996;9.594;2023-05-10T07:44:21;6.80;;;2.30;;
17175;SDS011;8703;48.996;9.594;2023-05-10T07:46:51;2.70;;;2.50;;
17175;SDS011;8703;48.996;9.594;2023-05-10T07:49:18;3.13;;;1.88;;
17175;SDS011;8703;48.996;9.594;2023-05-10T07:51:46;3.50;;;1.90;;
17175;SDS011;8703;48.996;9.594;2023-05-10T07:54:14;2.93;;;2.37;;
17175;SDS011;8703;48.996;9.594;2023-05-10T07:56:41;3.10;;;2.10;;
17175;SDS011;8703;48.996;9.594;2023-05-10T07:59:14;2.63;;;1.50;;
17175;SDS011;8703;48.996;9.594;2023-05-10T08:01:42;3.13;;;1.73;;
17175;SDS011;8703;48.996;9.594;2023-05-10T08:04:11;1.73;;;1.60;;
17175;SDS011;8703;48.996;9.594;2023-05-10T08:06:39;1.83;;;1.40;;
17175;SDS011;8703;48.996;9.594;2023-05-10T08:09:06;1.63;;;1.50;;
17175;SDS011;8703;48.996;9.594;2023-05-10T08:11:34;1.90;;;1.70;;
17175;SDS011;8703;48.996;9.594;2023-05-10T08:14:01;2.93;;;1.70;;
17175;SDS011;8703;48.996;9.594;2023-05-10T08:16:29;5.03;;;1.50;;
17175;SDS011;8703;48.996;9.594;2023-05-10T08:18:57;3.38;;;1.58;;
17175;SDS011;8703;48.996;9.594;2023-05-10T08:21:26;2.90;;;1.60;;
17175;SDS011;8703;48.996;9.594;2023-05-10T08:23:53;1.88;;;1.73;;
17175;SDS011;8703;48.996;9.594;2023-05-10T08:26:20;6.00;;;1.67;;
17175;SDS011;8703;48.996;9.594;2023-05-10T08:28:48;2.75;;;1.52;;
17175;SDS011;8703;48.996;9.594;2023-05-10T08:31:15;3.58;;;1.52;;
17175;SDS011;8703;48.996;9.594;2023-05-10T08:33:43;1.92;;;1.23;;
17175;SDS011;8703;48.996;9.594;2023-05-10T08:36:10;2.28;;;1.30;;
17175;SDS011;8703;48.996;9.594;2023-05-10T08:38:45;2.45;;;1.40;;
17175;SDS011;8703;48.996;9.594;2023-05-10T08:41:13;1.67;;;1.33;;
17175;SDS011;8703;48.996;9.594;2023-05-10T08:43:40;2.55;;;1.35;;
17175;SDS011;8703;48.996;9.594;2023-05-10T08:46:11;1.40;;;1.30;;
17175;SDS011;8703;48.996;9.594;2023-05-10T08:48:40;1.20;;;1.10;;
17175;SDS011;8703;48.996;9.594;2023-05-10T08:51:08;2.00;;;1.05;;
17175;SDS011;8703;48.996;9.594;2023-05-10T08:53:37;4.20;;;1.20;;
17175;SDS011;8703;48.996;9.594;2023-05-10T08:56:06;1.42;;;1.10;;
17175;SDS011;8703;48.996;9.594;2023-05-10T08:58:34;1.92;;;1.00;;
17175;SDS011;8703;48.996;9.594;2023-05-10T09:01:01;1.97;;;1.00;;
17175;SDS011;8703;48.996;9.594;2023-05-10T09:03:29;1.45;;;1.25;;
17175;SDS011;8703;48.996;9.594;2023-05-10T09:06:00;2.08;;;1.10;;
17175;SDS011;8703;48.996;9.594;2023-05-10T09:08:28;1.30;;;0.80;;
17175;SDS011;8703;48.996;9.594;2023-05-10T09:10:56;3.38;;;0.90;;
17175;SDS011;8703;48.996;9.594;2023-05-10T09:13:25;1.67;;;1.55;;
17175;SDS011;8703;48.996;9.594;2023-05-10T09:15:52;3.40;;;0.93;;
17175;SDS011;8703;48.996;9.594;2023-05-10T09:18:19;0.77;;;0.77;;
17175;SDS011;8703;48.996;9.594;2023-05-10T09:20:47;1.17;;;0.80;;
17175;SDS011;8703;48.996;9.594;2023-05-10T09:23:15;1.20;;;0.80;;
17175;SDS011;8703;48.996;9.594;2023-05-10T09:25:42;1.80;;;0.80;;
17175;SDS011;8703;48.996;9.594;2023-05-10T09:28:10;2.45;;;0.70;;
17175;SDS011;8703;48.996;9.594;2023-05-10T09:30:39;2.00;;;0.88;;
17175;SDS011;8703;48.996;9.594;2023-05-10T09:33:07;1.25;;;0.77;;
17175;SDS011;8703;48.996;9.594;2023-05-10T09:35:35;1.70;;;0.82;;
17175;SDS011;8703;48.996;9.594;2023-05-10T09:38:05;0.68;;;0.60;;
17175;SDS011;8703;48.996;9.594;2023-05-10T09:40:32;1.60;;;0.60;;
17175;SDS011;8703;48.996;9.594;2023-05-10T09:43:00;1.30;;;0.80;;
17175;SDS011;8703;48.996;9.594;2023-05-10T09:45:28;3.72;;;1.00;;
17175;SDS011;8703;48.996;9.594;2023-05-10T09:47:58;1.10;;;0.80;;
17175;SDS011;8703;48.996;9.594;2023-05-10T09:50:26;1.35;;;0.60;;
17175;SDS011;8703;48.996;9.594;2023-05-10T09:52:54;1.70;;;0.88;;
17175;SDS011;8703;48.996;9.594;2023-05-10T09:55:23;1.55;;;0.80;;
17175;SDS011;8703;48.996;9.594;2023-05-10T09:57:58;1.20;;;0.73;;
17175;SDS011;8703;48.996;9.594;2023-05-10T10:00:26;0.63;;;0.60;;
17175;SDS011;8703;48.996;9.594;2023-05-10T10:02:54;1.88;;;0.80;;
17175;SDS011;8703;48.996;9.594;2023-05-10T10:05:29;2.42;;;0.75;;
17175;SDS011;8703;48.996;9.594;2023-05-10T10:07:56;1.80;;;0.70;;
17175;SDS011;8703;48.996;9.594;2023-05-10T10:10:24;3.03;;;0.70;;
17175;SDS011;8703;48.996;9.594;2023-05-10T10:12:52;0.77;;;0.70;;
17175;SDS011;8703;48.996;9.594;2023-05-10T10:15:20;3.35;;;0.70;;
17175;SDS011;8703;48.996;9.594;2023-05-10T10:17:48;1.15;;;0.52;;
17175;SDS011;8703;48.996;9.594;2023-05-10T10:20:16;1.48;;;0.70;;
17175;SDS011;8703;48.996;9.594;2023-05-10T10:22:45;2.05;;;0.75;;
17175;SDS011;8703;48.996;9.594;2023-05-10T10:25:13;0.90;;;0.70;;
17175;SDS011;8703;48.996;9.594;2023-05-10T10:27:43;2.08;;;0.70;;
17175;SDS011;8703;48.996;9.594;2023-05-10T10:30:16;0.65;;;0.60;;
17175;SDS011;8703;48.996;9.594;2023-05-10T10:32:57;2.30;;;0.70;;
17175;SDS011;8703;48.996;9.594;2023-05-10T10:35:40;2.60;;;0.85;;
17175;SDS011;8703;48.996;9.594;2023-05-10T10:38:09;0.80;;;0.63;;
17175;SDS011;8703;48.996;9.594;2023-05-10T10:40:36;2.10;;;0.80;;
17175;SDS011;8703;48.996;9.594;2023-05-10T10:46:09;0.90;;;0.80;;
17175;SDS011;8703;48.996;9.594;2023-05-10T10:48:38;0.98;;;0.65;;
17175;SDS011;8703;48.996;9.594;2023-05-10T10:51:06;1.02;;;0.70;;
17175;SDS011;8703;48.996;9.594;2023-05-10T10:53:34;1.00;;;0.73;;
17175;SDS011;8703;48.996;9.594;2023-05-10T10:56:07;0.90;;;0.77;;
17175;SDS011;8703;48.996;9.594;2023-05-10T10:58:37;2.17;;;0.80;;
17175;SDS011;8703;48.996;9.594;2023-05-10T11:01:12;1.15;;;0.70;;
17175;SDS011;8703;48.996;9.594;2023-05-10T11:03:40;2.20;;;0.70;;
17175;SDS011;8703;48.996;9.594;2023-05-10T11:06:28;1.08;;;0.60;;
17175;SDS011;8703;48.996;9.594;2023-05-10T11:08:58;2.42;;;0.65;;
17175;SDS011;8703;48.996;9.594;2023-05-10T11:11:25;1.27;;;0.50;;
17175;SDS011;8703;48.996;9.594;2023-05-10T11:13:52;0.80;;;0.70;;
17175;SDS011;8703;48.996;9.594;2023-05-10T11:16:20;1.65;;;0.60;;
17175;SDS011;8703;48.996;9.594;2023-05-10T11:18:52;0.50;;;0.50;;
17175;SDS011;8703;48.996;9.594;2023-05-10T11:21:20;0.60;;;0.60;;
17175;SDS011;8703;48.996;9.594;2023-05-10T11:23:49;1.50;;;0.50;;
17175;SDS011;8703;48.996;9.594;2023-05-10T11:26:20;2.30;;;1.48;;
17175;SDS011;8703;48.996;9.594;2023-05-10T11:28:51;0.85;;;0.50;;
17175;SDS011;8703;48.996;9.594;2023-05-10T11:31:21;1.50;;;1.20;;
17175;SDS011;8703;48.996;9.594;2023-05-10T11:33:52;0.70;;;0.70;;
17175;SDS011;8703;48.996;9.594;2023-05-10T11:36:21;1.95;;;0.75;;
17175;SDS011;8703;48.996;9.594;2023-05-10T11:38:50;1.50;;;1.40;;
17175;SDS011;8703;48.996;9.594;2023-05-10T11:41:18;5.38;;;4.88;;
17175;SDS011;8703;48.996;9.594;2023-05-10T11:43:49;1.45;;;1.35;;
17175;SDS011;8703;48.996;9.594;2023-05-10T11:46:18;1.33;;;0.90;;
17175;SDS011;8703;48.996;9.594;2023-05-10T11:48:46;1.92;;;0.90;;
17175;SDS011;8703;48.996;9.594;2023-05-10T11:51:15;1.15;;;0.80;;
17175;SDS011;8703;48.996;9.594;2023-05-10T11:53:45;1.20;;;0.90;;
17175;SDS011;8703;48.996;9.594;2023-05-10T11:56:12;2.10;;;1.05;;
17175;SDS011;8703;48.996;9.594;2023-05-10T11:58:41;0.70;;;0.70;;
17175;SDS011;8703;48.996;9.594;2023-05-10T12:01:09;1.08;;;0.60;;
17175;SDS011;8703;48.996;9.594;2023-05-10T12:03:37;0.60;;;0.60;;
17175;SDS011;8703;48.996;9.594;2023-05-10T12:06:06;2.22;;;0.77;;
17175;SDS011;8703;48.996;9.594;2023-05-10T12:08:34;1.30;;;0.60;;
17175;SDS011;8703;48.996;9.594;2023-05-10T12:11:05;1.60;;;0.52;;
17175;SDS011;8703;48.996;9.594;2023-05-10T12:13:37;1.08;;;0.70;;
17175;SDS011;8703;48.996;9.594;2023-05-10T12:16:13;2.10;;;0.40;;
17175;SDS011;8703;48.996;9.594;2023-05-10T12:18:42;1.60;;;0.70;;
17175;SDS011;8703;48.996;9.594;2023-05-10T12:21:09;1.83;;;0.50;;
17175;SDS011;8703;48.996;9.594;2023-05-10T12:23:37;0.75;;;0.60;;
17175;SDS011;8703;48.996;9.594;2023-05-10T12:26:05;1.10;;;0.50;;
17175;SDS011;8703;48.996;9.594;2023-05-10T12:28:33;2.10;;;0.70;;
17175;SDS011;8703;48.996;9.594;2023-05-10T12:31:00;3.17;;;0.70;;
17175;SDS011;8703;48.996;9.594;2023-05-10T12:33:36;1.65;;;0.90;;
17175;SDS011;8703;48.996;9.594;2023-05-10T12:36:06;0.88;;;0.70;;
17175;SDS011;8703;48.996;9.594;2023-05-10T12:38:35;1.13;;;0.70;;
17175;SDS011;8703;48.996;9.594;2023-05-10T12:41:04;0.88;;;0.75;;
17175;SDS011;8703;48.996;9.594;2023-05-10T12:43:33;0.80;;;0.80;;
17175;SDS011;8703;48.996;9.594;2023-05-10T12:46:04;2.20;;;0.90;;
17175;SDS011;8703;48.996;9.594;2023-05-10T12:48:33;1.05;;;0.80;;
17175;SDS011;8703;48.996;9.594;2023-05-10T12:51:01;1.60;;;0.95;;
17175;SDS011;8703;48.996;9.594;2023-05-10T12:53:30;2.20;;;0.80;;
17175;SDS011;8703;48.996;9.594;2023-05-10T12:55:57;1.20;;;0.80;;
17175;SDS011;8703;48.996;9.594;2023-05-10T12:58:24;1.45;;;1.02;;
17175;SDS011;8703;48.996;9.594;2023-05-10T13:00:52;1.40;;;0.88;;
17175;SDS011;8703;48.996;9.594;2023-05-10T13:03:21;1.63;;;0.82;;
17175;SDS011;8703;48.996;9.594;2023-05-10T13:05:50;3.28;;;0.75;;
17175;SDS011;8703;48.996;9.594;2023-05-10T13:08:17;2.03;;;0.90;;
17175;SDS011;8703;48.996;9.594;2023-05-10T13:10:44;1.55;;;0.80;;
17175;SDS011;8703;48.996;9.594;2023-05-10T13:13:12;3.05;;;1.20;;
17175;SDS011;8703;48.996;9.594;2023-05-10T13:15:39;2.55;;;0.90;;
17175;SDS011;8703;48.996;9.594;2023-05-10T13:18:07;2.67;;;1.00;;
17175;SDS011;8703;48.996;9.594;2023-05-10T13:20:34;2.95;;;1.20;;
17175;SDS011;8703;48.996;9.594;2023-05-10T13:23:03;1.35;;;1.08;;
17175;SDS011;8703;48.996;9.594;2023-05-10T13:25:30;2.30;;;1.15;;
17175;SDS011;8703;48.996;9.594;2023-05-10T13:27:59;3.15;;;1.23;;
17175;SDS011;8703;48.996;9.594;2023-05-10T13:30:26;4.20;;;1.33;;
17175;SDS011;8703;48.996;9.594;2023-05-10T13:32:54;2.67;;;1.15;;
17175;SDS011;8703;48.996;9.594;2023-05-10T13:35:21;5.15;;;1.20;;
17175;SDS011;8703;48.996;9.594;2023-05-10T13:37:49;1.17;;;1.08;;
17175;SDS011;8703;48.996;9.594;2023-05-10T13:40:19;2.08;;;1.02;;
17175;SDS011;8703;48.996;9.594;2023-05-10T13:42:47;2.38;;;1.08;;
17175;SDS011;8703;48.996;9.594;2023-05-10T13:45:14;1.77;;;1.00;;
17175;SDS011;8703;48.996;9.594;2023-05-10T13:47:41;3.30;;;1.00;;
17175;SDS011;8703;48.996;9.594;2023-05-10T13:50:09;3.50;;;1.00;;
17175;SDS011;8703;48.996;9.594;2023-05-10T13:52:36;2.92;;;1.02;;
17175;SDS011;8703;48.996;9.594;2023-05-10T13:55:04;2.78;;;1.05;;
17175;SDS011;8703;48.996;9.594;2023-05-10T13:57:33;3.05;;;1.00;;
17175;SDS011;8703;48.996;9.594;2023-05-10T14:00:01;2.88;;;0.90;;
17175;SDS011;8703;48.996;9.594;2023-05-10T14:02:28;2.30;;;0.93;;
17175;SDS011;8703;48.996;9.594;2023-05-10T14:04:56;1.90;;;1.00;;
17175;SDS011;8703;48.996;9.594;2023-05-10T14:07:23;3.28;;;1.00;;
17175;SDS011;8703;48.996;9.594;2023-05-10T14:09:51;1.95;;;0.80;;
17175;SDS011;8703;48.996;9.594;2023-05-10T14:12:18;2.92;;;0.85;;
17175;SDS011;8703;48.996;9.594;2023-05-10T14:14:47;2.10;;;0.80;;
17175;SDS011;8703;48.996;9.594;2023-05-10T14:17:14;3.03;;;0.98;;
17175;SDS011;8703;48.996;9.594;2023-05-10T14:19:41;4.05;;;0.80;;
17175;SDS011;8703;48.996;9.594;2023-05-10T14:22:09;3.53;;;0.98;;
17175;SDS011;8703;48.996;9.594;2023-05-10T14:24:37;3.35;;;1.00;;
17175;SDS011;8703;48.996;9.594;2023-05-10T14:27:04;2.33;;;0.70;;
17175;SDS011;8703;48.996;9.594;2023-05-10T14:29:32;1.40;;;0.80;;
17175;SDS011;8703;48.996;9.594;2023-05-10T14:32:00;3.40;;;0.93;;
17175;SDS011;8703;48.996;9.594;2023-05-10T14:34:28;2.90;;;0.90;;
17175;SDS011;8703;48.996;9.594;2023-05-10T14:36:55;1.77;;;0.93;;
17175;SDS011;8703;48.996;9.594;2023-05-10T14:39:23;1.80;;;0.73;;
17175;SDS011;8703;48.996;9.594;2023-05-10T14:41:50;2.45;;;0.90;;
17175;SDS011;8703;48.996;9.594;2023-05-10T14:44:18;1.83;;;0.88;;
17175;SDS011;8703;48.996;9.594;2023-05-10T14:46:45;1.55;;;0.90;;
17175;SDS011;8703;48.996;9.594;2023-05-10T14:49:14;1.05;;;0.50;;
17175;SDS011;8703;48.996;9.594;2023-05-10T14:51:42;2.95;;;0.90;;
17175;SDS011;8703;48.996;9.594;2023-05-10T14:54:09;2.22;;;0.60;;
17175;SDS011;8703;48.996;9.594;2023-05-10T14:56:37;1.88;;;0.70;;
17175;SDS011;8703;48.996;9.594;2023-05-10T14:59:06;2.58;;;0.82;;
17175;SDS011;8703;48.996;9.594;2023-05-10T15:01:33;1.05;;;0.63;;
17175;SDS011;8703;48.996;9.594;2023-05-10T15:04:02;3.65;;;0.90;;
17175;SDS011;8703;48.996;9.594;2023-05-10T15:06:31;1.63;;;0.80;;
17175;SDS011;8703;48.996;9.594;2023-05-10T15:09:00;3.08;;;0.90;;
17175;SDS011;8703;48.996;9.594;2023-05-10T15:11:28;2.70;;;0.90;;
17175;SDS011;8703;48.996;9.594;2023-05-10T15:13:56;4.47;;;0.93;;